sensor_id;sensor_type;location;lat;lon;timestamp;P1;durP1;ratioP1;P2;durP2;ratioP2
70981;SDS011;58640;51.320;9.456;2022-09-03T00:02:34;2.78;;;1.00;;
70981;SDS011;58640;51.320;9.456;2022-09-03T00:07:53;2.75;;;0.85;;
70981;SDS011;58640;51.320;9.456;2022-09-03T00:10:28;1.23;;;0.70;;
70981;SDS011;58640;51.320;9.456;2022-09-03T00:13:02;1.30;;;0.80;;
70981;SDS011;58640;51.320;9.456;2022-09-03T00:15:30;1.23;;;0.85;;
70981;SDS011;58640;51.320;9.456;2022-09-03T00:17:59;2.13;;;0.90;;
70981;SDS011;58640;51.320;9.456;2022-09-03T00:23:36;1.60;;;0.95;;
70981;SDS011;58640;51.320;9.456;2022-09-03T00:28:46;6.22;;;1.80;;
70981;SDS011;58640;51.320;9.456;2022-09-03T00:31:20;1.02;;;0.70;;
70981;SDS011;58640;51.320;9.456;2022-09-03T00:33:51;3.38;;;1.20;;
70981;SDS011;58640;51.320;9.456;2022-09-03T00:36:28;2.92;;;1.42;;
70981;SDS011;58640;51.320;9.456;2022-09-03T00:38:59;2.58;;;0.90;;
70981;SDS011;58640;51.320;9.456;2022-09-03T00:44:22;2.85;;;0.95;;
70981;SDS011;58640;51.320;9.456;2022-09-03T00:53:04;1.40;;;0.80;;
70981;SDS011;58640;51.320;9.456;2022-09-03T01:01:13;1.00;;;0.80;;
70981;SDS011;58640;51.320;9.456;2022-09-03T01:03:49;5.25;;;0.60;;
70981;SDS011;58640;51.320;9.456;2022-09-03T01:17:06;1.35;;;0.93;;
70981;SDS011;58640;51.320;9.456;2022-09-03T01:25:48;2.25;;;0.70;;
70981;SDS011;58640;51.320;9.456;2022-09-03T01:31:10;1.75;;;0.60;;
70981;SDS011;58640;51.320;9.456;2022-09-03T01:34:09;1.95;;;0.60;;
70981;SDS011;58640;51.320;9.456;2022-09-03T01:36:58;3.08;;;0.70;;
70981;SDS011;58640;51.320;9.456;2022-09-03T01:45:25;1.08;;;0.77;;
70981;SDS011;58640;51.320;9.456;2022-09-03T01:47:57;3.35;;;0.70;;
70981;SDS011;58640;51.320;9.456;2022-09-03T02:04:25;1.48;;;0.77;;
70981;SDS011;58640;51.320;9.456;2022-09-03T02:06:51;4.18;;;0.80;;
70981;SDS011;58640;51.320;9.456;2022-09-03T02:09:18;3.10;;;1.08;;
70981;SDS011;58640;51.320;9.456;2022-09-03T02:11:45;1.95;;;0.80;;
70981;SDS011;58640;51.320;9.456;2022-09-03T02:14:17;2.22;;;0.90;;
70981;SDS011;58640;51.320;9.456;2022-09-03T02:16:43;3.00;;;0.85;;
70981;SDS011;58640;51.320;9.456;2022-09-03T02:19:10;1.23;;;0.70;;
70981;SDS011;58640;51.320;9.456;2022-09-03T02:21:39;2.65;;;1.13;;
70981;SDS011;58640;51.320;9.456;2022-09-03T02:24:11;1.45;;;0.98;;
70981;SDS011;58640;51.320;9.456;2022-09-03T02:26:37;0.80;;;0.80;;
70981;SDS011;58640;51.320;9.456;2022-09-03T02:29:03;2.80;;;0.80;;
70981;SDS011;58640;51.320;9.456;2022-09-03T02:31:29;3.90;;;0.85;;
70981;SDS011;58640;51.320;9.456;2022-09-03T02:33:55;1.42;;;0.80;;
70981;SDS011;58640;51.320;9.456;2022-09-03T02:36:26;1.27;;;1.02;;
70981;SDS011;58640;51.320;9.456;2022-09-03T02:38:56;1.75;;;0.65;;
70981;SDS011;58640;51.320;9.456;2022-09-03T02:41:22;2.33;;;0.65;;
70981;SDS011;58640;51.320;9.456;2022-09-03T02:47:08;1.25;;;0.70;;
70981;SDS011;58640;51.320;9.456;2022-09-03T02:49:33;0.90;;;0.80;;
70981;SDS011;58640;51.320;9.456;2022-09-03T02:52:04;3.83;;;0.52;;
70981;SDS011;58640;51.320;9.456;2022-09-03T02:54:34;1.33;;;0.80;;
70981;SDS011;58640;51.320;9.456;2022-09-03T02:57:04;2.10;;;0.77;;
70981;SDS011;58640;51.320;9.456;2022-09-03T02:59:31;1.25;;;0.73;;
70981;SDS011;58640;51.320;9.456;2022-09-03T03:01:56;0.88;;;0.65;;
70981;SDS011;58640;51.320;9.456;2022-09-03T03:04:22;1.48;;;0.98;;
70981;SDS011;58640;51.320;9.456;2022-09-03T03:06:47;4.50;;;1.38;;
70981;SDS011;58640;51.320;9.456;2022-09-03T03:09:14;1.10;;;0.82;;
70981;SDS011;58640;51.320;9.456;2022-09-03T03:11:41;1.63;;;0.80;;
70981;SDS011;58640;51.320;9.456;2022-09-03T03:14:06;2.60;;;1.00;;
70981;SDS011;58640;51.320;9.456;2022-09-03T03:16:32;1.88;;;0.98;;
70981;SDS011;58640;51.320;9.456;2022-09-03T03:18:57;1.75;;;0.93;;
70981;SDS011;58640;51.320;9.456;2022-09-03T03:21:22;3.35;;;0.93;;
70981;SDS011;58640;51.320;9.456;2022-09-03T03:23:48;1.23;;;1.08;;
70981;SDS011;58640;51.320;9.456;2022-09-03T03:26:15;0.90;;;0.73;;
70981;SDS011;58640;51.320;9.456;2022-09-03T03:28:45;1.10;;;1.00;;
70981;SDS011;58640;51.320;9.456;2022-09-03T03:31:16;1.30;;;1.02;;
70981;SDS011;58640;51.320;9.456;2022-09-03T03:33:43;1.27;;;0.80;;
70981;SDS011;58640;51.320;9.456;2022-09-03T03:36:13;2.22;;;0.82;;
70981;SDS011;58640;51.320;9.456;2022-09-03T03:38:39;2.78;;;0.90;;
70981;SDS011;58640;51.320;9.456;2022-09-03T03:41:16;1.65;;;0.95;;
70981;SDS011;58640;51.320;9.456;2022-09-03T03:43:45;1.92;;;1.10;;
70981;SDS011;58640;51.320;9.456;2022-09-03T03:46:11;1.05;;;0.80;;
70981;SDS011;58640;51.320;9.456;2022-09-03T03:48:38;1.15;;;0.90;;
70981;SDS011;58640;51.320;9.456;2022-09-03T03:51:04;1.52;;;0.70;;
70981;SDS011;58640;51.320;9.456;2022-09-03T03:53:35;1.88;;;1.10;;
70981;SDS011;58640;51.320;9.456;2022-09-03T03:56:07;1.50;;;0.82;;
70981;SDS011;58640;51.320;9.456;2022-09-03T03:58:35;1.70;;;0.90;;
70981;SDS011;58640;51.320;9.456;2022-09-03T04:01:08;2.28;;;1.13;;
70981;SDS011;58640;51.320;9.456;2022-09-03T04:03:38;4.20;;;1.17;;
70981;SDS011;58640;51.320;9.456;2022-09-03T04:06:04;3.53;;;1.10;;
70981;SDS011;58640;51.320;9.456;2022-09-03T04:08:33;4.82;;;1.30;;
70981;SDS011;58640;51.320;9.456;2022-09-03T04:11:00;2.10;;;1.02;;
70981;SDS011;58640;51.320;9.456;2022-09-03T04:13:28;2.00;;;0.90;;
70981;SDS011;58640;51.320;9.456;2022-09-03T04:16:02;2.63;;;0.75;;
70981;SDS011;58640;51.320;9.456;2022-09-03T04:18:32;1.70;;;1.08;;
70981;SDS011;58640;51.320;9.456;2022-09-03T04:21:02;4.65;;;1.17;;
70981;SDS011;58640;51.320;9.456;2022-09-03T04:23:30;2.45;;;1.08;;
70981;SDS011;58640;51.320;9.456;2022-09-03T04:25:56;5.30;;;1.73;;
70981;SDS011;58640;51.320;9.456;2022-09-03T04:28:22;6.95;;;1.70;;
70981;SDS011;58640;51.320;9.456;2022-09-03T04:30:47;1.50;;;1.00;;
70981;SDS011;58640;51.320;9.456;2022-09-03T04:33:13;1.67;;;1.00;;
70981;SDS011;58640;51.320;9.456;2022-09-03T04:35:38;8.15;;;1.00;;
70981;SDS011;58640;51.320;9.456;2022-09-03T04:38:05;1.20;;;1.10;;
70981;SDS011;58640;51.320;9.456;2022-09-03T04:40:30;0.60;;;0.60;;
70981;SDS011;58640;51.320;9.456;2022-09-03T04:42:56;1.40;;;1.00;;
70981;SDS011;58640;51.320;9.456;2022-09-03T04:45:23;4.88;;;1.35;;
70981;SDS011;58640;51.320;9.456;2022-09-03T04:47:55;1.08;;;0.80;;
70981;SDS011;58640;51.320;9.456;2022-09-03T04:50:28;2.85;;;0.82;;
70981;SDS011;58640;51.320;9.456;2022-09-03T04:52:59;4.72;;;1.10;;
70981;SDS011;58640;51.320;9.456;2022-09-03T04:55:25;4.88;;;1.00;;
70981;SDS011;58640;51.320;9.456;2022-09-03T04:57:50;2.45;;;1.10;;
70981;SDS011;58640;51.320;9.456;2022-09-03T05:00:16;2.65;;;0.70;;
70981;SDS011;58640;51.320;9.456;2022-09-03T05:02:43;3.10;;;1.20;;
70981;SDS011;58640;51.320;9.456;2022-09-03T05:05:11;1.90;;;1.10;;
70981;SDS011;58640;51.320;9.456;2022-09-03T05:07:37;2.92;;;1.13;;
70981;SDS011;58640;51.320;9.456;2022-09-03T05:10:09;3.75;;;1.10;;
70981;SDS011;58640;51.320;9.456;2022-09-03T05:12:40;2.25;;;0.95;;
70981;SDS011;58640;51.320;9.456;2022-09-03T05:15:05;1.73;;;1.20;;
70981;SDS011;58640;51.320;9.456;2022-09-03T05:17:31;2.67;;;1.08;;
70981;SDS011;58640;51.320;9.456;2022-09-03T05:19:56;2.28;;;1.00;;
70981;SDS011;58640;51.320;9.456;2022-09-03T05:22:22;5.88;;;1.10;;
70981;SDS011;58640;51.320;9.456;2022-09-03T05:24:47;1.80;;;1.10;;
70981;SDS011;58640;51.320;9.456;2022-09-03T05:27:13;1.30;;;0.80;;
70981;SDS011;58640;51.320;9.456;2022-09-03T05:29:41;1.17;;;0.85;;
70981;SDS011;58640;51.320;9.456;2022-09-03T05:32:09;2.35;;;0.90;;
70981;SDS011;58640;51.320;9.456;2022-09-03T05:34:35;2.97;;;1.20;;
70981;SDS011;58640;51.320;9.456;2022-09-03T05:37:00;2.33;;;1.20;;
70981;SDS011;58640;51.320;9.456;2022-09-03T05:39:25;2.03;;;1.00;;
70981;SDS011;58640;51.320;9.456;2022-09-03T05:41:51;2.30;;;0.90;;
70981;SDS011;58640;51.320;9.456;2022-09-03T05:44:17;3.30;;;1.15;;
70981;SDS011;58640;51.320;9.456;2022-09-03T05:46:42;3.05;;;0.90;;
70981;SDS011;58640;51.320;9.456;2022-09-03T05:49:08;1.45;;;0.80;;
70981;SDS011;58640;51.320;9.456;2022-09-03T05:51:35;1.45;;;1.15;;
70981;SDS011;58640;51.320;9.456;2022-09-03T05:54:03;9.23;;;0.98;;
70981;SDS011;58640;51.320;9.456;2022-09-03T05:56:29;1.10;;;1.00;;
70981;SDS011;58640;51.320;9.456;2022-09-03T05:58:57;1.05;;;0.95;;
70981;SDS011;58640;51.320;9.456;2022-09-03T06:01:26;1.10;;;0.98;;
70981;SDS011;58640;51.320;9.456;2022-09-03T06:06:20;5.10;;;1.05;;
70981;SDS011;58640;51.320;9.456;2022-09-03T06:08:50;0.98;;;0.80;;
70981;SDS011;58640;51.320;9.456;2022-09-03T06:11:15;1.67;;;0.93;;
70981;SDS011;58640;51.320;9.456;2022-09-03T06:13:41;1.88;;;1.20;;
70981;SDS011;58640;51.320;9.456;2022-09-03T06:16:06;3.43;;;1.10;;
70981;SDS011;58640;51.320;9.456;2022-09-03T06:18:32;0.80;;;0.70;;
70981;SDS011;58640;51.320;9.456;2022-09-03T06:20:59;2.58;;;1.00;;
70981;SDS011;58640;51.320;9.456;2022-09-03T06:23:26;1.67;;;0.90;;
70981;SDS011;58640;51.320;9.456;2022-09-03T06:26:05;1.75;;;0.90;;
70981;SDS011;58640;51.320;9.456;2022-09-03T06:28:35;3.22;;;1.10;;
70981;SDS011;58640;51.320;9.456;2022-09-03T06:31:03;1.38;;;0.85;;
70981;SDS011;58640;51.320;9.456;2022-09-03T06:33:31;1.00;;;0.73;;
70981;SDS011;58640;51.320;9.456;2022-09-03T06:35:59;2.25;;;0.88;;
70981;SDS011;58640;51.320;9.456;2022-09-03T06:38:26;2.40;;;0.80;;
70981;SDS011;58640;51.320;9.456;2022-09-03T06:40:54;1.98;;;1.02;;
70981;SDS011;58640;51.320;9.456;2022-09-03T06:43:20;3.47;;;0.85;;
70981;SDS011;58640;51.320;9.456;2022-09-03T06:45:57;6.38;;;1.15;;
70981;SDS011;58640;51.320;9.456;2022-09-03T06:48:24;9.23;;;1.35;;
70981;SDS011;58640;51.320;9.456;2022-09-03T06:53:21;2.38;;;1.13;;
70981;SDS011;58640;51.320;9.456;2022-09-03T06:56:01;3.47;;;1.27;;
70981;SDS011;58640;51.320;9.456;2022-09-03T06:58:38;1.58;;;1.10;;
70981;SDS011;58640;51.320;9.456;2022-09-03T07:01:12;4.00;;;1.45;;
70981;SDS011;58640;51.320;9.456;2022-09-03T07:03:39;3.33;;;0.90;;
70981;SDS011;58640;51.320;9.456;2022-09-03T07:06:07;3.97;;;1.67;;
70981;SDS011;58640;51.320;9.456;2022-09-03T07:08:34;2.70;;;1.17;;
70981;SDS011;58640;51.320;9.456;2022-09-03T07:11:00;2.40;;;1.10;;
70981;SDS011;58640;51.320;9.456;2022-09-03T07:13:30;0.90;;;0.80;;
70981;SDS011;58640;51.320;9.456;2022-09-03T07:15:59;1.80;;;0.80;;
70981;SDS011;58640;51.320;9.456;2022-09-03T07:18:26;2.35;;;0.80;;
70981;SDS011;58640;51.320;9.456;2022-09-03T07:20:56;1.13;;;0.80;;
70981;SDS011;58640;51.320;9.456;2022-09-03T07:23:22;2.50;;;0.60;;
70981;SDS011;58640;51.320;9.456;2022-09-03T07:25:57;2.22;;;1.20;;
70981;SDS011;58640;51.320;9.456;2022-09-03T07:28:25;0.93;;;0.75;;
70981;SDS011;58640;51.320;9.456;2022-09-03T07:30:51;2.55;;;0.93;;
70981;SDS011;58640;51.320;9.456;2022-09-03T07:33:17;0.60;;;0.60;;
70981;SDS011;58640;51.320;9.456;2022-09-03T07:35:43;2.95;;;0.80;;
70981;SDS011;58640;51.320;9.456;2022-09-03T07:38:09;1.05;;;0.68;;
70981;SDS011;58640;51.320;9.456;2022-09-03T07:40:35;5.45;;;0.90;;
70981;SDS011;58640;51.320;9.456;2022-09-03T07:43:00;5.80;;;0.75;;
70981;SDS011;58640;51.320;9.456;2022-09-03T07:45:29;1.17;;;1.08;;
70981;SDS011;58640;51.320;9.456;2022-09-03T07:47:55;0.85;;;0.70;;
70981;SDS011;58640;51.320;9.456;2022-09-03T07:50:21;3.90;;;1.10;;
70981;SDS011;58640;51.320;9.456;2022-09-03T07:52:46;2.97;;;1.15;;
70981;SDS011;58640;51.320;9.456;2022-09-03T07:55:11;1.23;;;0.80;;
70981;SDS011;58640;51.320;9.456;2022-09-03T07:57:37;1.17;;;0.70;;
70981;SDS011;58640;51.320;9.456;2022-09-03T08:00:03;3.38;;;0.80;;
70981;SDS011;58640;51.320;9.456;2022-09-03T08:02:32;2.22;;;0.80;;
70981;SDS011;58640;51.320;9.456;2022-09-03T08:04:57;2.08;;;0.50;;
70981;SDS011;58640;51.320;9.456;2022-09-03T08:07:23;1.58;;;0.60;;
70981;SDS011;58640;51.320;9.456;2022-09-03T08:09:48;3.03;;;1.05;;
70981;SDS011;58640;51.320;9.456;2022-09-03T08:12:14;2.90;;;0.70;;
70981;SDS011;58640;51.320;9.456;2022-09-03T08:14:40;1.67;;;0.70;;
70981;SDS011;58640;51.320;9.456;2022-09-03T08:17:05;2.17;;;0.73;;
70981;SDS011;58640;51.320;9.456;2022-09-03T08:19:31;1.63;;;0.77;;
70981;SDS011;58640;51.320;9.456;2022-09-03T08:21:57;1.85;;;0.70;;
70981;SDS011;58640;51.320;9.456;2022-09-03T08:24:24;1.17;;;0.70;;
70981;SDS011;58640;51.320;9.456;2022-09-03T08:26:50;2.78;;;0.68;;
70981;SDS011;58640;51.320;9.456;2022-09-03T08:29:16;1.30;;;0.40;;
70981;SDS011;58640;51.320;9.456;2022-09-03T08:31:41;0.57;;;0.57;;
70981;SDS011;58640;51.320;9.456;2022-09-03T08:34:07;1.85;;;0.60;;
70981;SDS011;58640;51.320;9.456;2022-09-03T08:36:36;0.60;;;0.60;;
70981;SDS011;58640;51.320;9.456;2022-09-03T08:39:04;1.85;;;0.80;;
70981;SDS011;58640;51.320;9.456;2022-09-03T08:41:43;1.38;;;0.90;;
70981;SDS011;58640;51.320;9.456;2022-09-03T08:44:29;6.40;;;0.93;;
70981;SDS011;58640;51.320;9.456;2022-09-03T08:47:13;2.83;;;0.70;;
70981;SDS011;58640;51.320;9.456;2022-09-03T08:52:28;1.88;;;0.85;;
70981;SDS011;58640;51.320;9.456;2022-09-03T09:00:48;1.30;;;0.70;;
70981;SDS011;58640;51.320;9.456;2022-09-03T09:21:32;0.70;;;0.57;;
70981;SDS011;58640;51.320;9.456;2022-09-03T09:24:12;1.02;;;0.50;;
70981;SDS011;58640;51.320;9.456;2022-09-03T09:26:46;4.03;;;0.85;;
70981;SDS011;58640;51.320;9.456;2022-09-03T09:29:11;3.00;;;0.75;;
70981;SDS011;58640;51.320;9.456;2022-09-03T09:31:38;3.95;;;0.60;;
70981;SDS011;58640;51.320;9.456;2022-09-03T09:34:08;0.50;;;0.50;;
70981;SDS011;58640;51.320;9.456;2022-09-03T09:37:08;1.15;;;0.60;;
70981;SDS011;58640;51.320;9.456;2022-09-03T09:39:28;0.98;;;0.90;;
70981;SDS011;58640;51.320;9.456;2022-09-03T09:42:01;1.95;;;0.70;;
70981;SDS011;58640;51.320;9.456;2022-09-03T09:44:33;0.77;;;0.43;;
70981;SDS011;58640;51.320;9.456;2022-09-03T09:47:03;2.60;;;0.60;;
70981;SDS011;58640;51.320;9.456;2022-09-03T09:52:24;0.88;;;0.55;;
70981;SDS011;58640;51.320;9.456;2022-09-03T09:54:52;0.60;;;0.50;;
70981;SDS011;58640;51.320;9.456;2022-09-03T09:57:31;1.27;;;0.80;;
70981;SDS011;58640;51.320;9.456;2022-09-03T10:00:29;0.60;;;0.57;;
70981;SDS011;58640;51.320;9.456;2022-09-03T10:02:49;2.20;;;0.77;;
70981;SDS011;58640;51.320;9.456;2022-09-03T10:05:25;2.78;;;0.82;;
70981;SDS011;58640;51.320;9.456;2022-09-03T10:08:01;1.52;;;0.70;;
70981;SDS011;58640;51.320;9.456;2022-09-03T10:10:29;1.95;;;1.10;;
70981;SDS011;58640;51.320;9.456;2022-09-03T10:13:03;4.40;;;1.65;;
70981;SDS011;58640;51.320;9.456;2022-09-03T10:15:39;2.33;;;0.52;;
70981;SDS011;58640;51.320;9.456;2022-09-03T10:20:47;1.48;;;0.40;;
70981;SDS011;58640;51.320;9.456;2022-09-03T10:23:25;1.13;;;0.70;;
70981;SDS011;58640;51.320;9.456;2022-09-03T10:28:31;4.85;;;1.08;;
70981;SDS011;58640;51.320;9.456;2022-09-03T10:34:33;0.82;;;0.60;;
70981;SDS011;58640;51.320;9.456;2022-09-03T10:49:08;2.92;;;0.55;;
70981;SDS011;58640;51.320;9.456;2022-09-03T10:51:56;1.77;;;0.50;;
70981;SDS011;58640;51.320;9.456;2022-09-03T11:00:08;2.05;;;0.70;;
70981;SDS011;58640;51.320;9.456;2022-09-03T11:05:21;1.95;;;0.70;;
70981;SDS011;58640;51.320;9.456;2022-09-03T11:07:58;1.85;;;0.63;;
70981;SDS011;58640;51.320;9.456;2022-09-03T11:10:31;2.97;;;0.98;;
70981;SDS011;58640;51.320;9.456;2022-09-03T11:13:05;3.47;;;0.57;;
70981;SDS011;58640;51.320;9.456;2022-09-03T11:18:30;3.63;;;0.60;;
70981;SDS011;58640;51.320;9.456;2022-09-03T11:21:03;0.75;;;0.50;;
70981;SDS011;58640;51.320;9.456;2022-09-03T11:23:42;1.45;;;0.70;;
70981;SDS011;58640;51.320;9.456;2022-09-03T11:26:14;0.80;;;0.50;;
70981;SDS011;58640;51.320;9.456;2022-09-03T11:28:58;1.27;;;0.75;;
70981;SDS011;58640;51.320;9.456;2022-09-03T11:34:42;0.82;;;0.80;;
70981;SDS011;58640;51.320;9.456;2022-09-03T11:39:42;1.48;;;0.70;;
70981;SDS011;58640;51.320;9.456;2022-09-03T11:42:10;1.00;;;0.90;;
70981;SDS011;58640;51.320;9.456;2022-09-03T11:44:45;0.73;;;0.68;;
70981;SDS011;58640;51.320;9.456;2022-09-03T11:49:44;4.38;;;0.50;;
70981;SDS011;58640;51.320;9.456;2022-09-03T11:52:13;2.50;;;0.50;;
70981;SDS011;58640;51.320;9.456;2022-09-03T11:54:50;1.42;;;0.68;;
70981;SDS011;58640;51.320;9.456;2022-09-03T11:57:20;0.95;;;0.80;;
70981;SDS011;58640;51.320;9.456;2022-09-03T11:59:51;2.28;;;0.90;;
70981;SDS011;58640;51.320;9.456;2022-09-03T12:02:24;2.83;;;0.60;;
70981;SDS011;58640;51.320;9.456;2022-09-03T12:07:49;2.60;;;0.60;;
70981;SDS011;58640;51.320;9.456;2022-09-03T12:10:48;0.60;;;0.50;;
70981;SDS011;58640;51.320;9.456;2022-09-03T12:21:52;0.65;;;0.50;;
70981;SDS011;58640;51.320;9.456;2022-09-03T12:24:19;1.10;;;0.50;;
70981;SDS011;58640;51.320;9.456;2022-09-03T12:26:44;2.50;;;0.52;;
70981;SDS011;58640;51.320;9.456;2022-09-03T12:29:26;1.13;;;0.57;;
70981;SDS011;58640;51.320;9.456;2022-09-03T12:31:53;0.90;;;0.60;;
70981;SDS011;58640;51.320;9.456;2022-09-03T12:34:20;0.93;;;0.60;;
70981;SDS011;58640;51.320;9.456;2022-09-03T12:36:51;2.90;;;0.60;;
70981;SDS011;58640;51.320;9.456;2022-09-03T12:39:21;1.25;;;0.63;;
70981;SDS011;58640;51.320;9.456;2022-09-03T12:41:58;0.60;;;0.60;;
70981;SDS011;58640;51.320;9.456;2022-09-03T12:47:03;1.17;;;0.60;;
70981;SDS011;58640;51.320;9.456;2022-09-03T12:49:37;2.90;;;0.55;;
70981;SDS011;58640;51.320;9.456;2022-09-03T12:52:15;1.23;;;0.60;;
70981;SDS011;58640;51.320;9.456;2022-09-03T12:54:52;5.53;;;0.68;;
70981;SDS011;58640;51.320;9.456;2022-09-03T12:57:29;4.75;;;0.65;;
70981;SDS011;58640;51.320;9.456;2022-09-03T13:00:11;1.85;;;0.70;;
70981;SDS011;58640;51.320;9.456;2022-09-03T13:02:41;3.05;;;0.75;;
70981;SDS011;58640;51.320;9.456;2022-09-03T13:05:16;2.05;;;0.70;;
70981;SDS011;58640;51.320;9.456;2022-09-03T13:07:46;2.25;;;0.65;;
70981;SDS011;58640;51.320;9.456;2022-09-03T13:12:48;1.67;;;0.65;;
70981;SDS011;58640;51.320;9.456;2022-09-03T13:15:20;2.20;;;0.75;;
70981;SDS011;58640;51.320;9.456;2022-09-03T13:20:34;2.67;;;0.80;;
70981;SDS011;58640;51.320;9.456;2022-09-03T13:26:17;3.28;;;1.10;;
70981;SDS011;58640;51.320;9.456;2022-09-03T13:31:43;0.82;;;0.70;;
70981;SDS011;58640;51.320;9.456;2022-09-03T13:36:50;0.70;;;0.70;;
70981;SDS011;58640;51.320;9.456;2022-09-03T13:39:26;0.88;;;0.70;;
70981;SDS011;58640;51.320;9.456;2022-09-03T13:42:16;2.50;;;0.60;;
70981;SDS011;58640;51.320;9.456;2022-09-03T13:44:51;2.92;;;0.77;;
70981;SDS011;58640;51.320;9.456;2022-09-03T13:50:26;5.63;;;0.70;;
70981;SDS011;58640;51.320;9.456;2022-09-03T13:58:05;2.00;;;0.80;;
70981;SDS011;58640;51.320;9.456;2022-09-03T14:06:08;2.50;;;0.73;;
70981;SDS011;58640;51.320;9.456;2022-09-03T14:22:14;3.15;;;0.95;;
70981;SDS011;58640;51.320;9.456;2022-09-03T14:27:26;8.10;;;0.95;;
70981;SDS011;58640;51.320;9.456;2022-09-03T14:30:01;0.80;;;0.65;;
70981;SDS011;58640;51.320;9.456;2022-09-03T14:35:11;2.47;;;1.00;;
70981;SDS011;58640;51.320;9.456;2022-09-03T14:40:46;1.27;;;0.80;;
70981;SDS011;58640;51.320;9.456;2022-09-03T14:49:03;0.77;;;0.60;;
70981;SDS011;58640;51.320;9.456;2022-09-03T14:51:45;0.75;;;0.60;;
70981;SDS011;58640;51.320;9.456;2022-09-03T14:54:45;1.85;;;0.98;;
70981;SDS011;58640;51.320;9.456;2022-09-03T15:00:20;2.75;;;0.98;;
70981;SDS011;58640;51.320;9.456;2022-09-03T15:03:02;0.95;;;0.57;;
70981;SDS011;58640;51.320;9.456;2022-09-03T15:11:01;1.70;;;0.70;;
70981;SDS011;58640;51.320;9.456;2022-09-03T15:13:32;0.88;;;0.85;;
70981;SDS011;58640;51.320;9.456;2022-09-03T15:16:17;7.07;;;1.10;;
70981;SDS011;58640;51.320;9.456;2022-09-03T15:19:12;2.25;;;0.80;;
70981;SDS011;58640;51.320;9.456;2022-09-03T15:22:01;5.32;;;0.80;;
70981;SDS011;58640;51.320;9.456;2022-09-03T15:27:31;3.05;;;0.70;;
70981;SDS011;58640;51.320;9.456;2022-09-03T15:30:18;4.65;;;0.70;;
70981;SDS011;58640;51.320;9.456;2022-09-03T15:32:47;1.45;;;0.90;;
70981;SDS011;58640;51.320;9.456;2022-09-03T15:37:53;3.85;;;0.50;;
70981;SDS011;58640;51.320;9.456;2022-09-03T15:40:26;1.13;;;0.85;;
70981;SDS011;58640;51.320;9.456;2022-09-03T15:42:59;1.73;;;0.88;;
70981;SDS011;58640;51.320;9.456;2022-09-03T15:45:35;3.72;;;0.77;;
70981;SDS011;58640;51.320;9.456;2022-09-03T15:48:33;2.45;;;1.00;;
70981;SDS011;58640;51.320;9.456;2022-09-03T15:51:17;9.25;;;0.93;;
70981;SDS011;58640;51.320;9.456;2022-09-03T16:07:40;2.85;;;1.23;;
70981;SDS011;58640;51.320;9.456;2022-09-03T16:16:25;6.18;;;1.05;;
70981;SDS011;58640;51.320;9.456;2022-09-03T16:25:43;1.15;;;0.70;;
70981;SDS011;58640;51.320;9.456;2022-09-03T16:38:41;2.50;;;1.55;;
70981;SDS011;58640;51.320;9.456;2022-09-03T16:41:34;1.52;;;1.00;;
70981;SDS011;58640;51.320;9.456;2022-09-03T16:47:00;3.65;;;1.08;;
70981;SDS011;58640;51.320;9.456;2022-09-03T16:49:45;1.58;;;0.75;;
70981;SDS011;58640;51.320;9.456;2022-09-03T16:55:21;3.90;;;1.05;;
70981;SDS011;58640;51.320;9.456;2022-09-03T16:58:14;3.13;;;0.90;;
70981;SDS011;58640;51.320;9.456;2022-09-03T17:00:53;2.90;;;1.02;;
70981;SDS011;58640;51.320;9.456;2022-09-03T17:09:23;3.63;;;2.45;;
70981;SDS011;58640;51.320;9.456;2022-09-03T17:11:50;2.28;;;1.70;;
70981;SDS011;58640;51.320;9.456;2022-09-03T17:19:58;2.70;;;1.10;;
70981;SDS011;58640;51.320;9.456;2022-09-03T17:22:41;2.42;;;1.30;;
70981;SDS011;58640;51.320;9.456;2022-09-03T17:25:18;2.60;;;1.40;;
70981;SDS011;58640;51.320;9.456;2022-09-03T17:28:01;4.55;;;1.40;;
70981;SDS011;58640;51.320;9.456;2022-09-03T17:36:27;2.35;;;1.48;;
70981;SDS011;58640;51.320;9.456;2022-09-03T17:44:21;3.53;;;1.55;;
70981;SDS011;58640;51.320;9.456;2022-09-03T17:49:51;2.28;;;1.17;;
70981;SDS011;58640;51.320;9.456;2022-09-03T17:52:26;3.13;;;1.30;;
70981;SDS011;58640;51.320;9.456;2022-09-03T17:55:00;1.25;;;1.15;;
70981;SDS011;58640;51.320;9.456;2022-09-03T17:57:47;3.00;;;1.13;;
70981;SDS011;58640;51.320;9.456;2022-09-03T18:00:25;1.95;;;1.15;;
70981;SDS011;58640;51.320;9.456;2022-09-03T18:03:01;2.97;;;1.00;;
70981;SDS011;58640;51.320;9.456;2022-09-03T18:05:43;3.50;;;1.00;;
70981;SDS011;58640;51.320;9.456;2022-09-03T18:11:06;1.77;;;1.25;;
70981;SDS011;58640;51.320;9.456;2022-09-03T18:16:25;3.67;;;1.80;;
70981;SDS011;58640;51.320;9.456;2022-09-03T18:18:52;1.98;;;1.42;;
70981;SDS011;58640;51.320;9.456;2022-09-03T18:21:42;1.40;;;0.93;;
70981;SDS011;58640;51.320;9.456;2022-09-03T18:24:29;2.25;;;1.67;;
70981;SDS011;58640;51.320;9.456;2022-09-03T18:27:22;1.50;;;1.30;;
70981;SDS011;58640;51.320;9.456;2022-09-03T18:30:27;7.97;;;2.03;;
70981;SDS011;58640;51.320;9.456;2022-09-03T18:33:11;4.88;;;1.13;;
70981;SDS011;58640;51.320;9.456;2022-09-03T18:35:55;0.80;;;0.80;;
70981;SDS011;58640;51.320;9.456;2022-09-03T18:38:41;2.95;;;1.00;;
70981;SDS011;58640;51.320;9.456;2022-09-03T18:50:48;2.85;;;1.25;;
70981;SDS011;58640;51.320;9.456;2022-09-03T18:56:37;1.17;;;0.90;;
70981;SDS011;58640;51.320;9.456;2022-09-03T19:00:09;2.35;;;1.20;;
70981;SDS011;58640;51.320;9.456;2022-09-03T19:03:02;5.22;;;1.30;;
70981;SDS011;58640;51.320;9.456;2022-09-03T19:15:22;3.38;;;1.23;;
70981;SDS011;58640;51.320;9.456;2022-09-03T19:18:09;3.58;;;1.20;;
70981;SDS011;58640;51.320;9.456;2022-09-03T19:21:27;1.00;;;0.95;;
70981;SDS011;58640;51.320;9.456;2022-09-03T19:24:15;1.10;;;0.90;;
70981;SDS011;58640;51.320;9.456;2022-09-03T19:30:00;4.20;;;1.33;;
70981;SDS011;58640;51.320;9.456;2022-09-03T19:32:56;3.30;;;1.27;;
70981;SDS011;58640;51.320;9.456;2022-09-03T19:39:08;2.72;;;1.30;;
70981;SDS011;58640;51.320;9.456;2022-09-03T19:51:40;4.07;;;2.28;;
70981;SDS011;58640;51.320;9.456;2022-09-03T19:54:37;5.78;;;2.65;;
70981;SDS011;58640;51.320;9.456;2022-09-03T19:57:22;4.60;;;2.83;;
70981;SDS011;58640;51.320;9.456;2022-09-03T20:00:08;4.85;;;2.80;;
70981;SDS011;58640;51.320;9.456;2022-09-03T20:02:53;5.43;;;2.40;;
70981;SDS011;58640;51.320;9.456;2022-09-03T20:05:37;3.30;;;2.30;;
70981;SDS011;58640;51.320;9.456;2022-09-03T20:08:22;3.58;;;2.28;;
70981;SDS011;58640;51.320;9.456;2022-09-03T20:11:08;3.90;;;1.85;;
70981;SDS011;58640;51.320;9.456;2022-09-03T20:13:40;7.30;;;2.35;;
70981;SDS011;58640;51.320;9.456;2022-09-03T20:16:28;3.90;;;2.28;;
70981;SDS011;58640;51.320;9.456;2022-09-03T20:21:47;4.38;;;1.90;;
70981;SDS011;58640;51.320;9.456;2022-09-03T20:32:10;2.05;;;1.70;;
70981;SDS011;58640;51.320;9.456;2022-09-03T20:37:40;6.05;;;2.35;;
70981;SDS011;58640;51.320;9.456;2022-09-03T20:46:51;3.92;;;1.85;;
70981;SDS011;58640;51.320;9.456;2022-09-03T20:51:45;4.22;;;1.90;;
70981;SDS011;58640;51.320;9.456;2022-09-03T20:54:27;1.77;;;1.45;;
70981;SDS011;58640;51.320;9.456;2022-09-03T20:57:09;2.33;;;1.50;;
70981;SDS011;58640;51.320;9.456;2022-09-03T21:05:31;3.58;;;1.60;;
70981;SDS011;58640;51.320;9.456;2022-09-03T21:18:50;8.35;;;1.50;;
70981;SDS011;58640;51.320;9.456;2022-09-03T21:21:35;2.63;;;1.50;;
70981;SDS011;58640;51.320;9.456;2022-09-03T21:24:21;3.88;;;1.65;;
70981;SDS011;58640;51.320;9.456;2022-09-03T21:26:52;3.25;;;1.30;;
70981;SDS011;58640;51.320;9.456;2022-09-03T21:29:31;4.75;;;1.52;;
70981;SDS011;58640;51.320;9.456;2022-09-03T21:32:09;3.78;;;1.80;;
70981;SDS011;58640;51.320;9.456;2022-09-03T21:34:45;3.35;;;1.52;;
70981;SDS011;58640;51.320;9.456;2022-09-03T21:37:19;2.75;;;2.00;;
70981;SDS011;58640;51.320;9.456;2022-09-03T21:39:50;3.05;;;1.85;;